Time;durP1;ratioP1;P1;durP2;ratioP2;P2;SDS_P1;SDS_P2;PMS_P1;PMS_P2;Temp;Humidity;BMP_temperature;BMP_pressure;BME280_temperature;BME280_humidity;BME280_pressure;Samples;Min_cycle;Max_cycle;Signal;HPM_P1;HPM_P2
2023/01/01 00:03:48;;;;;;;;;;;11.20;1.00;;;;;;5047920;28;19924;-83
2023/01/01 00:12:16;;;;;;;;;;;11.20;1.00;;;;;;5053693;28;20422;-83
2023/01/01 00:14:59;;;;;;;;;;;11.20;1.00;;;;;;5041846;28;19940;-83
2023/01/01 00:17:29;;;;;;;;;;;11.10;1.00;;;;;;5042682;28;19909;-83
2023/01/01 00:22:58;;;;;;;;;;;11.00;1.00;;;;;;5042108;28;19924;-83
2023/01/01 00:25:53;;;;;;;;;;;10.90;1.00;;;;;;5048539;28;19912;-83
2023/01/01 00:28:47;;;;;;;;;;;10.90;1.00;;;;;;5046187;28;19913;-83
2023/01/01 00:31:29;;;;;;;;;;;10.90;1.00;;;;;;5037988;28;19917;-83
2023/01/01 00:36:58;;;;;;;;;;;10.90;1.00;;;;;;5041947;28;19955;-83
2023/01/01 00:42:41;;;;;;;;;;;10.80;1.00;;;;;;5047112;28;19963;-83
2023/01/01 00:48:29;;;;;;;;;;;10.70;1.00;;;;;;5042501;28;20461;-83
2023/01/01 00:50:59;;;;;;;;;;;10.60;1.00;;;;;;5043360;28;19959;-83
2023/01/01 00:53:41;;;;;;;;;;;10.50;1.00;;;;;;5034427;28;19910;-83
2023/01/01 00:59:11;;;;;;;;;;;10.30;1.00;;;;;;5039695;28;19915;-83
2023/01/01 01:01:41;;;;;;;;;;;10.20;1.00;;;;;;5045841;28;19909;-83
2023/01/01 01:04:24;;;;;;;;;;;10.20;1.00;;;;;;5033024;28;19921;-83
2023/01/01 01:07:11;;;;;;;;;;;10.20;1.00;;;;;;5035959;28;19909;-83
2023/01/01 01:09:53;;;;;;;;;;;10.10;1.00;;;;;;5043345;28;19917;-83
2023/01/01 01:12:35;;;;;;;;;;;10.10;1.00;;;;;;5037909;28;19913;-83
2023/01/01 01:15:17;;;;;;;;;;;10.10;1.00;;;;;;5051596;28;20258;-83
2023/01/01 01:17:59;;;;;;;;;;;10.00;1.00;;;;;;5041765;28;19913;-83
2023/01/01 01:20:59;;;;;;;;;;;10.00;1.00;;;;;;5033690;28;19909;-83
2023/01/01 01:23:25;;;;;;;;;;;9.90;1.00;;;;;;5046502;28;19923;-83
2023/01/01 01:29:23;;;;;;;;;;;9.80;1.00;;;;;;5044015;28;19919;-83
2023/01/01 01:31:49;;;;;;;;;;;9.80;1.00;;;;;;5048141;28;19913;-83
2023/01/01 01:34:23;;;;;;;;;;;9.80;1.00;;;;;;5045392;28;19916;-83
2023/01/01 01:39:52;;;;;;;;;;;9.80;1.00;;;;;;5037006;28;19924;-83
2023/01/01 01:42:29;;;;;;;;;;;9.80;1.00;;;;;;5050154;28;19908;-83
2023/01/01 01:45:17;;;;;;;;;;;9.80;1.00;;;;;;5035977;28;19920;-83
2023/01/01 01:47:49;;;;;;;;;;;9.80;1.00;;;;;;5048423;28;19908;-83
2023/01/01 01:53:27;;;;;;;;;;;9.70;1.00;;;;;;5036640;28;19932;-78
2023/01/01 01:56:07;;;;;;;;;;;9.70;1.00;;;;;;5049757;28;19917;-79
2023/01/01 01:58:35;;;;;;;;;;;9.60;1.00;;;;;;5052359;28;19915;-78
2023/01/01 02:01:01;;;;;;;;;;;9.50;1.00;;;;;;5067654;28;19913;-79
2023/01/01 02:03:59;;;;;;;;;;;9.50;1.00;;;;;;5045173;28;19978;-78
2023/01/01 02:06:26;;;;;;;;;;;9.40;1.00;;;;;;5061547;28;19908;-78
2023/01/01 02:09:01;;;;;;;;;;;9.40;1.00;;;;;;5058081;28;19982;-78
2023/01/01 02:11:27;;;;;;;;;;;9.40;1.00;;;;;;5053261;28;19909;-78
2023/01/01 02:13:54;;;;;;;;;;;9.30;1.00;;;;;;5036300;28;20282;-78
2023/01/01 02:16:41;;;;;;;;;;;9.30;1.00;;;;;;5048587;28;19915;-78
2023/01/01 02:19:29;;;;;;;;;;;9.30;1.00;;;;;;5047808;28;19909;-78
2023/01/01 02:22:10;;;;;;;;;;;9.20;1.00;;;;;;5039264;28;19944;-78
2023/01/01 02:24:48;;;;;;;;;;;9.20;1.00;;;;;;5045058;28;20000;-78
2023/01/01 02:27:37;;;;;;;;;;;9.10;1.00;;;;;;5049352;28;19942;-78
2023/01/01 02:30:12;;;;;;;;;;;9.10;1.00;;;;;;5036697;28;19954;-78
2023/01/01 02:33:10;;;;;;;;;;;9.10;1.00;;;;;;5038966;28;19909;-78
2023/01/01 02:35:43;;;;;;;;;;;9.10;1.00;;;;;;5005888;28;19918;-79
2023/01/01 02:38:11;;;;;;;;;;;9.00;1.00;;;;;;4998130;28;19917;-78
2023/01/01 02:40:40;;;;;;;;;;;9.00;1.00;;;;;;4997856;28;20305;-78
2023/01/01 02:43:11;;;;;;;;;;;8.90;1.00;;;;;;5002167;28;20512;-78
2023/01/01 02:45:37;;;;;;;;;;;8.90;1.00;;;;;;5013644;28;20281;-78
2023/01/01 02:48:06;;;;;;;;;;;8.90;1.00;;;;;;4993713;28;19910;-78
2023/01/01 02:50:53;;;;;;;;;;;8.80;1.00;;;;;;5013856;28;19910;-78
2023/01/01 02:53:32;;;;;;;;;;;8.80;1.00;;;;;;4999899;28;19949;-79
2023/01/01 02:55:59;;;;;;;;;;;8.80;1.00;;;;;;4997737;28;19964;-78
2023/01/01 03:01:47;;;;;;;;;;;8.70;1.00;;;;;;4992442;28;19916;-78
2023/01/01 03:04:44;;;;;;;;;;;8.70;1.00;;;;;;4985277;28;19918;-78
2023/01/01 03:07:38;;;;;;;;;;;8.70;1.00;;;;;;4963726;28;20330;-78
2023/01/01 03:10:14;;;;;;;;;;;8.70;1.00;;;;;;4952364;28;20338;-79
2023/01/01 03:12:59;;;;;;;;;;;8.70;1.00;;;;;;4966754;28;20012;-78
2023/01/01 03:15:35;;;;;;;;;;;8.80;9.30;;;;;;4966215;28;19917;-78
2023/01/01 03:18:14;;;;;;;;;;;8.90;13.10;;;;;;4969985;28;19953;-79
2023/01/01 03:20:49;;;;;;;;;;;8.90;15.10;;;;;;4974066;28;19918;-79
2023/01/01 03:23:25;;;;;;;;;;;8.90;15.20;;;;;;4973864;28;20066;-79
2023/01/01 03:25:56;;;;;;;;;;;9.00;18.40;;;;;;4973885;28;19918;-79
2023/01/01 03:28:35;;;;;;;;;;;9.00;13.70;;;;;;4965823;28;19921;-79
2023/01/01 03:34:06;;;;;;;;;;;9.00;7.30;;;;;;4961237;28;20507;-78
2023/01/01 03:36:54;;;;;;;;;;;9.10;5.40;;;;;;4973622;28;19926;-79
2023/01/01 03:42:22;;;;;;;;;;;9.10;6.30;;;;;;4974335;28;19964;-84
2023/01/01 03:44:50;;;;;;;;;;;9.20;5.60;;;;;;4974423;28;19953;-84
2023/01/01 03:47:47;;;;;;;;;;;9.20;8.40;;;;;;5013598;28;19913;-83
2023/01/01 03:50:41;;;;;;;;;;;9.20;14.30;;;;;;5042650;28;20011;-83
2023/01/01 03:53:38;;;;;;;;;;;9.30;17.00;;;;;;5043210;28;19916;-83
2023/01/01 03:56:23;;;;;;;;;;;9.30;14.30;;;;;;4996998;28;19914;-79
2023/01/01 03:59:11;;;;;;;;;;;9.40;14.60;;;;;;5011158;28;19918;-79
2023/01/01 04:01:48;;;;;;;;;;;9.40;17.70;;;;;;5012087;28;19913;-79
2023/01/01 04:04:14;;;;;;;;;;;9.50;17.40;;;;;;4994039;28;20469;-79
2023/01/01 04:06:41;;;;;;;;;;;9.50;18.40;;;;;;4995230;28;20004;-78
2023/01/01 04:09:18;;;;;;;;;;;9.50;15.60;;;;;;5012286;28;19910;-79
2023/01/01 04:12:03;;;;;;;;;;;9.50;16.40;;;;;;5006759;28;19924;-84
2023/01/01 04:17:31;;;;;;;;;;;9.60;5.10;;;;;;5013091;28;19957;-83
2023/01/01 04:23:01;;;;;;;;;;;9.60;15.10;;;;;;5001301;28;19916;-84
2023/01/01 04:25:35;;;;;;;;;;;9.70;16.10;;;;;;5016095;28;19917;-79
2023/01/01 04:31:11;;;;;;;;;;;9.80;8.20;;;;;;4999199;28;19920;-79
2023/01/01 04:33:41;;;;;;;;;;;9.80;5.00;;;;;;5032799;28;19954;-79
2023/01/01 04:36:11;;;;;;;;;;;9.90;3.40;;;;;;5042060;28;19919;-79
2023/01/01 04:38:41;;;;;;;;;;;9.90;3.00;;;;;;5040423;28;19917;-79
2023/01/01 04:41:11;;;;;;;;;;;9.90;1.70;;;;;;5052227;28;19909;-79
2023/01/01 04:43:59;;;;;;;;;;;10.00;2.20;;;;;;5038618;28;19921;-78
2023/01/01 04:46:42;;;;;;;;;;;10.00;1.00;;;;;;5041545;28;19969;-79
2023/01/01 04:49:07;;;;;;;;;;;10.00;1.00;;;;;;5032612;28;19917;-79
2023/01/01 04:51:48;;;;;;;;;;;10.10;1.00;;;;;;5049444;28;20282;-78
2023/01/01 04:57:30;;;;;;;;;;;10.10;1.00;;;;;;5035320;28;19920;-79
2023/01/01 05:00:00;;;;;;;;;;;10.20;1.00;;;;;;5036473;28;19909;-79
2023/01/01 05:02:35;;;;;;;;;;;10.20;1.00;;;;;;5041217;28;19916;-79
2023/01/01 05:05:12;;;;;;;;;;;10.30;1.00;;;;;;5046400;28;19920;-79
2023/01/01 05:07:37;;;;;;;;;;;10.30;1.00;;;;;;5042922;28;19920;-79
2023/01/01 05:10:29;;;;;;;;;;;10.40;1.00;;;;;;5038831;28;19913;-83
2023/01/01 05:19:17;;;;;;;;;;;10.50;1.00;;;;;;5043290;28;19972;-84
2023/01/01 05:22:05;;;;;;;;;;;10.50;1.00;;;;;;5041125;28;19909;-83
2023/01/01 05:24:35;;;;;;;;;;;10.60;1.00;;;;;;5049875;28;19972;-84
2023/01/01 05:27:23;;;;;;;;;;;10.60;1.00;;;;;;5041703;28;19909;-79
2023/01/01 05:29:49;;;;;;;;;;;10.60;1.00;;;;;;5037810;28;19909;-80
2023/01/01 05:32:29;;;;;;;;;;;10.60;1.00;;;;;;5040551;28;19955;-79
2023/01/01 05:34:59;;;;;;;;;;;10.60;1.00;;;;;;5067971;28;19995;-79
2023/01/01 05:37:25;;;;;;;;;;;10.60;1.00;;;;;;5053999;28;19928;-79
2023/01/01 05:39:51;;;;;;;;;;;10.60;1.00;;;;;;5035293;28;19921;-79
2023/01/01 05:42:23;;;;;;;;;;;10.60;1.00;;;;;;5043761;28;19908;-84
2023/01/01 05:48:00;;;;;;;;;;;10.60;1.00;;;;;;5046857;28;19932;-84
2023/01/01 05:53:29;;;;;;;;;;;10.60;1.00;;;;;;5038642;28;19916;-84
2023/01/01 05:59:12;;;;;;;;;;;10.50;1.00;;;;;;5050601;28;19963;-84
2023/01/01 06:01:41;;;;;;;;;;;10.60;1.00;;;;;;5041013;28;19941;-83
2023/01/01 06:07:10;;;;;;;;;;;10.60;1.00;;;;;;5043056;28;19975;-83
2023/01/01 06:10:11;;;;;;;;;;;10.70;1.00;;;;;;5048171;28;20361;-84
2023/01/01 06:12:41;;;;;;;;;;;10.70;1.00;;;;;;5046791;28;20361;-83
2023/01/01 06:21:17;;;;;;;;;;;10.60;1.00;;;;;;5047019;28;19920;-84
2023/01/01 06:23:48;;;;;;;;;;;10.60;1.00;;;;;;5041902;28;19912;-84
2023/01/01 06:29:16;;;;;;;;;;;10.70;1.00;;;;;;5036628;28;19916;-84
2023/01/01 06:31:42;;;;;;;;;;;10.70;1.00;;;;;;5043697;28;19909;-83
2023/01/01 06:34:17;;;;;;;;;;;10.60;1.00;;;;;;5054018;28;20353;-84
2023/01/01 06:36:59;;;;;;;;;;;10.60;1.00;;;;;;5039736;28;19913;-84
2023/01/01 06:39:41;;;;;;;;;;;10.70;1.00;;;;;;5054454;28;19917;-84
2023/01/01 06:42:11;;;;;;;;;;;10.70;1.00;;;;;;5037211;28;20011;-73
2023/01/01 06:44:37;;;;;;;;;;;10.70;1.00;;;;;;5044512;28;20372;-72
2023/01/01 06:47:06;;;;;;;;;;;10.70;1.00;;;;;;5042301;28;19942;-82
2023/01/01 06:49:35;;;;;;;;;;;10.70;1.00;;;;;;5042728;28;19920;-76
2023/01/01 06:52:01;;;;;;;;;;;10.70;1.00;;;;;;5044322;28;19967;-75
2023/01/01 06:54:27;;;;;;;;;;;10.70;1.00;;;;;;5034562;28;20029;-75
2023/01/01 06:56:53;;;;;;;;;;;10.70;1.00;;;;;;5053917;28;20330;-75
2023/01/01 06:59:19;;;;;;;;;;;10.70;1.00;;;;;;5045660;28;19909;-75
2023/01/01 07:01:45;;;;;;;;;;;10.70;1.00;;;;;;5045076;28;20291;-75
2023/01/01 07:04:12;;;;;;;;;;;10.70;1.00;;;;;;5038056;28;19917;-75
2023/01/01 07:06:38;;;;;;;;;;;10.70;1.00;;;;;;5045774;28;20357;-75
2023/01/01 07:09:04;;;;;;;;;;;10.60;1.00;;;;;;5051805;28;19975;-75
2023/01/01 07:11:30;;;;;;;;;;;10.60;1.00;;;;;;5040010;28;20394;-79
2023/01/01 07:14:06;;;;;;;;;;;10.60;1.00;;;;;;5038220;28;20353;-80
2023/01/01 07:16:31;;;;;;;;;;;10.50;1.00;;;;;;5034077;28;19913;-79
2023/01/01 07:19:11;;;;;;;;;;;10.50;1.00;;;;;;5058084;28;19915;-80
2023/01/01 07:21:47;;;;;;;;;;;10.50;1.00;;;;;;5047880;28;19912;-80
2023/01/01 07:24:35;;;;;;;;;;;10.50;1.00;;;;;;5046745;28;20373;-80
2023/01/01 07:27:12;;;;;;;;;;;10.40;1.00;;;;;;5051686;28;20420;-75
2023/01/01 07:29:37;;;;;;;;;;;10.50;1.00;;;;;;5071320;28;19912;-75
2023/01/01 07:32:03;;;;;;;;;;;10.50;1.00;;;;;;5042929;28;19962;-75
2023/01/01 07:34:28;;;;;;;;;;;10.50;1.00;;;;;;5054492;28;19909;-76
2023/01/01 07:36:55;;;;;;;;;;;10.50;1.00;;;;;;5052626;28;19920;-75
2023/01/01 07:39:21;;;;;;;;;;;10.50;1.00;;;;;;5062628;28;19919;-75
2023/01/01 07:41:46;;;;;;;;;;;10.40;1.00;;;;;;5049606;28;19908;-79
2023/01/01 07:44:14;;;;;;;;;;;10.40;1.00;;;;;;5047995;28;20339;-79
2023/01/01 07:47:05;;;;;;;;;;;10.50;1.00;;;;;;5035017;28;19909;-79
2023/01/01 07:49:42;;;;;;;;;;;10.50;1.00;;;;;;5034517;28;19909;-79
2023/01/01 07:52:07;;;;;;;;;;;10.60;1.00;;;;;;5039265;28;19913;-79
2023/01/01 07:54:35;;;;;;;;;;;10.60;1.00;;;;;;5045549;28;20330;-79
2023/01/01 07:57:01;;;;;;;;;;;10.60;1.00;;;;;;5065177;28;19939;-75
2023/01/01 07:59:27;;;;;;;;;;;10.70;1.00;;;;;;5052955;28;20395;-76
2023/01/01 08:01:52;;;;;;;;;;;10.70;1.00;;;;;;5043243;28;19913;-75
2023/01/01 08:04:35;;;;;;;;;;;10.80;1.00;;;;;;5048213;28;19913;-79
2023/01/01 08:10:05;;;;;;;;;;;10.90;1.00;;;;;;5042244;28;19970;-83
2023/01/01 08:12:42;;;;;;;;;;;11.00;1.00;;;;;;5044791;28;19913;-81
2023/01/01 08:15:29;;;;;;;;;;;11.00;1.00;;;;;;5034198;28;19913;-82
2023/01/01 08:17:59;;;;;;;;;;;11.10;1.00;;;;;;5048519;28;19971;-80
2023/01/01 08:20:25;;;;;;;;;;;11.10;1.00;;;;;;5051664;28;19913;-80
2023/01/01 08:22:54;;;;;;;;;;;11.20;1.00;;;;;;5032880;28;20345;-80
2023/01/01 08:28:30;;;;;;;;;;;11.40;1.00;;;;;;5035809;28;19924;-75
2023/01/01 08:31:00;;;;;;;;;;;11.50;1.00;;;;;;5037190;28;19915;-75
2023/01/01 08:33:25;;;;;;;;;;;11.50;1.00;;;;;;5042186;28;20377;-75
2023/01/01 08:36:11;;;;;;;;;;;11.60;1.00;;;;;;5040349;28;19913;-76
2023/01/01 08:41:40;;;;;;;;;;;11.70;1.00;;;;;;5054038;28;19916;-84
2023/01/01 08:44:18;;;;;;;;;;;11.80;1.00;;;;;;5052750;28;19917;-80
2023/01/01 08:46:48;;;;;;;;;;;11.90;1.00;;;;;;5043446;28;20407;-80
2023/01/01 08:49:42;;;;;;;;;;;12.00;1.00;;;;;;5032665;28;20393;-80
2023/01/01 08:52:18;;;;;;;;;;;12.10;1.00;;;;;;5046086;28;19923;-77
2023/01/01 08:54:48;;;;;;;;;;;12.30;1.00;;;;;;5061644;28;20359;-76
2023/01/01 08:57:13;;;;;;;;;;;12.40;1.00;;;;;;5072139;28;19932;-74
2023/01/01 08:59:39;;;;;;;;;;;12.50;1.00;;;;;;5045154;28;20471;-73
2023/01/01 09:02:12;;;;;;;;;;;12.70;1.00;;;;;;5047049;28;19914;-74
2023/01/01 09:04:48;;;;;;;;;;;12.80;1.00;;;;;;5046881;28;19959;-73
2023/01/01 09:07:18;;;;;;;;;;;13.00;1.00;;;;;;5075083;28;19909;-74
2023/01/01 09:09:48;;;;;;;;;;;13.00;1.00;;;;;;5043496;28;19952;-74
2023/01/01 09:12:15;;;;;;;;;;;13.10;1.00;;;;;;5051954;28;19913;-73
2023/01/01 09:14:48;;;;;;;;;;;13.20;1.00;;;;;;5039750;28;19913;-77
2023/01/01 09:17:18;;;;;;;;;;;13.30;1.00;;;;;;5047925;28;19909;-77
2023/01/01 09:20:00;;;;;;;;;;;13.30;1.00;;;;;;5037427;28;19939;-77
2023/01/01 09:22:30;;;;;;;;;;;13.40;1.00;;;;;;5051362;28;19959;-77
2023/01/01 09:25:00;;;;;;;;;;;13.40;1.00;;;;;;5050740;28;19917;-77
2023/01/01 09:27:28;;;;;;;;;;;13.40;1.00;;;;;;5048211;28;19927;-74
2023/01/01 09:33:06;;;;;;;;;;;13.60;1.00;;;;;;5039578;28;19916;-77
2023/01/01 09:35:32;;;;;;;;;;;13.50;1.00;;;;;;5049635;28;20011;-77
2023/01/01 09:38:12;;;;;;;;;;;13.60;1.00;;;;;;5038438;28;19928;-77
2023/01/01 09:40:56;;;;;;;;;;;13.60;1.00;;;;;;5050497;28;19913;-77
2023/01/01 09:43:21;;;;;;;;;;;13.60;1.00;;;;;;5037430;28;19940;-74
2023/01/01 09:46:05;;;;;;;;;;;13.70;1.00;;;;;;5050654;28;19982;-73
2023/01/01 09:48:32;;;;;;;;;;;13.70;1.00;;;;;;5045575;28;20277;-73
2023/01/01 09:50:59;;;;;;;;;;;13.90;1.00;;;;;;5039508;28;19913;-73
2023/01/01 09:53:32;;;;;;;;;;;13.90;1.00;;;;;;5044443;28;20462;-73
2023/01/01 09:56:01;;;;;;;;;;;13.90;1.00;;;;;;5044887;28;19908;-73
2023/01/01 09:58:34;;;;;;;;;;;13.90;1.00;;;;;;5051695;28;19913;-74
2023/01/01 10:01:36;;;;;;;;;;;14.00;1.00;;;;;;5046361;28;19920;-73
2023/01/01 10:04:20;;;;;;;;;;;14.00;1.00;;;;;;5062887;28;19970;-74
2023/01/01 10:07:04;;;;;;;;;;;14.00;1.00;;;;;;5054315;28;19921;-74
2023/01/01 10:09:48;;;;;;;;;;;14.10;1.00;;;;;;5040235;28;19913;-74
2023/01/01 10:12:24;;;;;;;;;;;14.20;1.00;;;;;;5033515;28;19936;-73
2023/01/01 10:15:26;;;;;;;;;;;14.20;1.00;;;;;;5042244;28;20261;-77
2023/01/01 10:18:03;;;;;;;;;;;14.30;1.00;;;;;;4980923;28;20262;-76
2023/01/01 10:20:50;;;;;;;;;;;14.40;1.00;;;;;;4989504;28;20017;-77
2023/01/01 10:23:26;;;;;;;;;;;14.60;1.00;;;;;;4982601;28;20390;-69
2023/01/01 10:25:53;;;;;;;;;;;14.80;1.00;;;;;;4984081;28;19959;-69
2023/01/01 10:28:29;;;;;;;;;;;14.90;1.00;;;;;;4993076;28;19917;-79
2023/01/01 10:31:24;;;;;;;;;;;15.00;1.00;;;;;;4983067;28;19918;-80
2023/01/01 10:33:54;;;;;;;;;;;15.00;1.00;;;;;;4992193;28;19929;-79
2023/01/01 10:36:25;;;;;;;;;;;15.00;1.00;;;;;;4994705;28;19917;-79
2023/01/01 10:39:00;;;;;;;;;;;15.10;1.00;;;;;;4989788;28;19921;-80
2023/01/01 10:41:48;;;;;;;;;;;15.10;1.00;;;;;;4976148;28;19920;-81
2023/01/01 10:44:25;;;;;;;;;;;15.10;1.00;;;;;;4984484;28;19914;-80
2023/01/01 10:47:15;;;;;;;;;;;15.10;1.00;;;;;;4986859;28;19977;-79
2023/01/01 10:53:18;;;;;;;;;;;15.10;1.00;;;;;;5036997;28;19928;-81
2023/01/01 10:58:51;;;;;;;;;;;15.20;1.00;;;;;;5042192;28;20370;-80
2023/01/01 11:01:37;;;;;;;;;;;15.20;1.00;;;;;;5042188;28;19916;-80
2023/01/01 11:04:21;;;;;;;;;;;15.20;1.00;;;;;;5045333;28;20265;-79
2023/01/01 11:06:47;;;;;;;;;;;15.20;1.00;;;;;;5050207;28;20315;-79
2023/01/01 11:09:30;;;;;;;;;;;15.20;1.00;;;;;;5047273;28;19966;-79
2023/01/01 11:12:18;;;;;;;;;;;15.20;1.00;;;;;;5058795;28;19916;-79
2023/01/01 11:14:49;;;;;;;;;;;15.50;1.00;;;;;;5037113;28;20181;-75
2023/01/01 11:17:21;;;;;;;;;;;15.70;1.00;;;;;;5057559;28;20379;-75
2023/01/01 11:19:48;;;;;;;;;;;15.80;1.00;;;;;;5045768;28;19995;-75
2023/01/01 11:22:33;;;;;;;;;;;16.00;1.00;;;;;;5042060;28;19919;-74
2023/01/01 11:25:00;;;;;;;;;;;16.00;1.00;;;;;;5006533;28;20434;-74
2023/01/01 11:27:25;;;;;;;;;;;16.00;1.00;;;;;;5022558;28;19975;-75
2023/01/01 11:29:53;;;;;;;;;;;15.90;1.00;;;;;;5035472;28;19974;-74
2023/01/01 11:32:31;;;;;;;;;;;16.00;1.00;;;;;;5015205;28;20414;-74
2023/01/01 11:35:17;;;;;;;;;;;15.90;1.00;;;;;;5019165;28;19952;-75
2023/01/01 11:37:56;;;;;;;;;;;15.90;1.00;;;;;;5028165;28;19920;-74
2023/01/01 11:40:28;;;;;;;;;;;16.00;1.00;;;;;;5023860;28;19956;-75
2023/01/01 11:42:56;;;;;;;;;;;16.10;1.00;;;;;;5030230;28;19928;-75
2023/01/01 11:45:24;;;;;;;;;;;16.20;1.00;;;;;;5028347;28;19945;-75
2023/01/01 11:47:51;;;;;;;;;;;16.30;1.00;;;;;;5027985;28;20374;-74
2023/01/01 11:50:21;;;;;;;;;;;16.30;1.00;;;;;;5029905;28;19916;-74
2023/01/01 11:52:48;;;;;;;;;;;16.40;1.00;;;;;;5014270;28;20399;-75
2023/01/01 11:55:17;;;;;;;;;;;16.40;1.00;;;;;;5029525;28;19913;-75
2023/01/01 11:57:46;;;;;;;;;;;16.20;1.00;;;;;;5026409;28;19920;-74
2023/01/01 12:00:13;;;;;;;;;;;16.20;1.00;;;;;;5022896;28;19910;-74
2023/01/01 12:02:41;;;;;;;;;;;16.20;1.00;;;;;;5033821;28;19960;-75
2023/01/01 12:05:13;;;;;;;;;;;16.20;1.00;;;;;;5036434;28;20495;-74
2023/01/01 12:07:49;;;;;;;;;;;16.10;1.00;;;;;;5043337;28;20360;-81
2023/01/01 12:10:23;;;;;;;;;;;16.10;1.00;;;;;;5043492;28;19925;-81
2023/01/01 12:13:12;;;;;;;;;;;16.00;1.00;;;;;;5044176;28;19921;-81
2023/01/01 12:15:54;;;;;;;;;;;15.90;1.00;;;;;;5042078;28;19913;-80
2023/01/01 12:18:30;;;;;;;;;;;15.90;1.00;;;;;;5050302;28;19913;-79
2023/01/01 12:21:17;;;;;;;;;;;15.80;1.00;;;;;;5035307;28;19921;-79
2023/01/01 12:23:48;;;;;;;;;;;15.90;1.00;;;;;;5035271;28;19917;-79
2023/01/01 12:26:24;;;;;;;;;;;15.90;1.00;;;;;;5045946;28;19921;-80
2023/01/01 12:29:08;;;;;;;;;;;15.90;1.00;;;;;;5034230;28;20285;-79
2023/01/01 12:31:50;;;;;;;;;;;15.90;1.00;;;;;;5041130;28;19956;-81
2023/01/01 12:34:29;;;;;;;;;;;16.00;1.00;;;;;;5037454;28;20000;-82
2023/01/01 12:37:03;;;;;;;;;;;16.10;1.00;;;;;;5041927;28;19917;-83
2023/01/01 12:39:36;;;;;;;;;;;16.10;1.00;;;;;;5045772;28;20019;-80
2023/01/01 12:42:24;;;;;;;;;;;16.10;1.00;;;;;;5064355;28;19917;-83
2023/01/01 12:45:12;;;;;;;;;;;16.00;1.00;;;;;;5045724;28;19920;-81
2023/01/01 12:47:54;;;;;;;;;;;16.00;1.00;;;;;;5037147;28;19916;-80
2023/01/01 12:50:24;;;;;;;;;;;16.00;1.00;;;;;;5038398;28;20328;-80
2023/01/01 12:53:07;;;;;;;;;;;16.00;1.00;;;;;;5038451;28;19913;-81
2023/01/01 12:55:54;;;;;;;;;;;16.00;1.00;;;;;;5052824;28;19913;-81
2023/01/01 13:01:26;;;;;;;;;;;16.00;1.00;;;;;;5035638;28;19962;-79
2023/01/01 13:04:16;;;;;;;;;;;16.00;1.00;;;;;;5039125;28;19939;-79
2023/01/01 13:06:56;;;;;;;;;;;16.00;1.00;;;;;;5046819;28;19919;-79
2023/01/01 13:09:30;;;;;;;;;;;16.10;1.00;;;;;;5053976;28;20032;-79
2023/01/01 13:11:58;;;;;;;;;;;16.10;1.00;;;;;;5044527;28;20327;-79
2023/01/01 13:14:24;;;;;;;;;;;16.10;1.00;;;;;;5032488;28;19916;-78
2023/01/01 13:16:51;;;;;;;;;;;16.00;1.00;;;;;;5047539;28;19913;-81
2023/01/01 13:19:25;;;;;;;;;;;16.10;1.00;;;;;;5045823;28;19955;-80
2023/01/01 13:21:54;;;;;;;;;;;16.20;1.00;;;;;;5036252;28;20269;-81
2023/01/01 13:24:25;;;;;;;;;;;16.10;1.00;;;;;;5041300;28;19967;-81
2023/01/01 13:26:54;;;;;;;;;;;16.10;1.00;;;;;;5034761;28;19913;-81
2023/01/01 13:29:41;;;;;;;;;;;16.10;1.00;;;;;;5040719;28;19917;-80
2023/01/01 13:32:13;;;;;;;;;;;16.20;1.00;;;;;;5040954;28;19913;-76
2023/01/01 13:34:58;;;;;;;;;;;16.20;1.00;;;;;;5053965;28;19909;-76
2023/01/01 13:37:24;;;;;;;;;;;16.10;1.00;;;;;;5037201;28;19979;-76
2023/01/01 13:39:56;;;;;;;;;;;15.90;1.00;;;;;;5041402;28;20008;-78
2023/01/01 13:42:55;;;;;;;;;;;15.80;1.00;;;;;;5045524;28;19916;-80
2023/01/01 13:48:43;;;;;;;;;;;15.80;1.00;;;;;;5043960;28;19958;-79
2023/01/01 13:51:27;;;;;;;;;;;15.80;1.00;;;;;;5070203;28;19909;-79
2023/01/01 13:54:07;;;;;;;;;;;15.70;1.00;;;;;;5036999;28;19913;-79
2023/01/01 14:02:43;;;;;;;;;;;15.60;1.00;;;;;;5038294;28;19924;-81
2023/01/01 14:05:16;;;;;;;;;;;15.50;1.00;;;;;;5049566;28;19920;-80
2023/01/01 14:07:55;;;;;;;;;;;15.50;1.00;;;;;;5036591;28;20320;-81
2023/01/01 14:10:26;;;;;;;;;;;15.40;1.00;;;;;;5044888;28;19913;-81
2023/01/01 14:13:13;;;;;;;;;;;15.50;1.00;;;;;;5043787;28;19916;-82
2023/01/01 14:15:43;;;;;;;;;;;15.40;1.00;;;;;;5048653;28;19912;-78
2023/01/01 14:18:13;;;;;;;;;;;15.30;1.00;;;;;;5053582;28;20804;-78
2023/01/01 14:20:43;;;;;;;;;;;15.30;1.00;;;;;;5047355;28;19920;-78
2023/01/01 14:23:19;;;;;;;;;;;15.20;1.00;;;;;;5038596;28;19913;-78
2023/01/01 14:25:49;;;;;;;;;;;15.20;1.00;;;;;;5035340;28;20008;-78
2023/01/01 14:28:29;;;;;;;;;;;15.20;1.00;;;;;;5046885;28;19921;-78
2023/01/01 14:30:56;;;;;;;;;;;15.30;1.00;;;;;;5036880;28;19913;-78
2023/01/01 14:33:37;;;;;;;;;;;15.20;1.00;;;;;;5036620;28;19913;-78
2023/01/01 14:36:05;;;;;;;;;;;15.20;1.00;;;;;;5048330;28;19911;-77
2023/01/01 14:38:32;;;;;;;;;;;15.20;1.00;;;;;;5041952;28;19919;-78
2023/01/01 14:41:31;;;;;;;;;;;15.20;1.00;;;;;;5045814;28;19917;-78
2023/01/01 14:44:17;;;;;;;;;;;15.20;1.00;;;;;;5048457;28;19916;-78
2023/01/01 14:46:51;;;;;;;;;;;15.20;1.00;;;;;;5045423;28;19971;-80
2023/01/01 14:49:37;;;;;;;;;;;15.20;1.00;;;;;;5047118;28;19920;-78
2023/01/01 14:52:13;;;;;;;;;;;15.10;1.00;;;;;;5037289;28;19913;-79
2023/01/01 14:54:43;;;;;;;;;;;15.20;1.00;;;;;;5050364;28;19912;-83
2023/01/01 14:57:16;;;;;;;;;;;15.20;1.00;;;;;;5050932;28;19917;-79
2023/01/01 14:59:55;;;;;;;;;;;15.10;1.00;;;;;;5046178;28;19913;-80
2023/01/01 15:02:27;;;;;;;;;;;15.10;1.00;;;;;;5058830;28;19959;-83
2023/01/01 15:05:15;;;;;;;;;;;15.10;1.00;;;;;;5035748;28;20360;-83
2023/01/01 15:11:02;;;;;;;;;;;14.90;1.00;;;;;;5056312;28;19915;-85
2023/01/01 15:13:27;;;;;;;;;;;14.90;1.00;;;;;;5038929;28;19909;-85
2023/01/01 15:15:55;;;;;;;;;;;14.90;1.00;;;;;;5044641;28;19909;-85
2023/01/01 15:18:52;;;;;;;;;;;14.80;1.00;;;;;;5049974;28;19909;-78
2023/01/01 15:21:43;;;;;;;;;;;14.70;1.00;;;;;;5042567;28;19909;-78
2023/01/01 15:24:20;;;;;;;;;;;14.70;1.00;;;;;;5047345;28;20376;-79
2023/01/01 15:26:51;;;;;;;;;;;14.60;1.00;;;;;;5034795;28;20012;-74
2023/01/01 15:29:24;;;;;;;;;;;14.60;1.00;;;;;;5040288;28;19924;-74
2023/01/01 15:31:57;;;;;;;;;;;14.50;1.00;;;;;;5058208;28;19913;-76
2023/01/01 15:34:31;;;;;;;;;;;14.50;1.00;;;;;;5037887;28;19909;-76
2023/01/01 15:37:19;;;;;;;;;;;14.50;1.00;;;;;;5035264;28;19913;-76
2023/01/01 15:39:49;;;;;;;;;;;14.40;1.00;;;;;;5072074;28;20387;-76
2023/01/01 15:42:33;;;;;;;;;;;14.40;1.00;;;;;;5035236;28;19962;-76
2023/01/01 15:45:22;;;;;;;;;;;14.40;1.00;;;;;;5060469;28;19966;-75
2023/01/01 15:47:57;;;;;;;;;;;14.40;1.00;;;;;;5049261;28;19963;-74
2023/01/01 15:50:27;;;;;;;;;;;14.40;1.00;;;;;;5043507;28;20008;-74
2023/01/01 15:53:08;;;;;;;;;;;14.40;1.00;;;;;;5055100;28;19920;-73
2023/01/01 15:55:42;;;;;;;;;;;14.40;1.00;;;;;;5042195;28;19931;-74
2023/01/01 15:58:19;;;;;;;;;;;14.40;1.00;;;;;;5046301;28;20280;-73
2023/01/01 16:01:00;;;;;;;;;;;14.40;1.00;;;;;;5045286;28;19923;-74
2023/01/01 16:03:40;;;;;;;;;;;14.40;1.00;;;;;;5035772;28;19920;-76
2023/01/01 16:06:25;;;;;;;;;;;14.40;1.00;;;;;;5045592;28;19996;-75
2023/01/01 16:08:53;;;;;;;;;;;14.40;1.00;;;;;;5034536;28;19909;-76
2023/01/01 16:11:21;;;;;;;;;;;14.40;1.00;;;;;;5037670;28;20269;-77
2023/01/01 16:13:47;;;;;;;;;;;14.40;1.00;;;;;;5035248;28;19947;-76
2023/01/01 16:16:31;;;;;;;;;;;14.40;1.00;;;;;;5046461;28;19944;-76
2023/01/01 16:19:00;;;;;;;;;;;14.40;1.00;;;;;;5041333;28;19910;-75
2023/01/01 16:21:32;;;;;;;;;;;14.40;1.00;;;;;;5037475;28;19960;-75
2023/01/01 16:23:58;;;;;;;;;;;14.30;1.00;;;;;;5039139;28;19924;-76
2023/01/01 16:26:25;;;;;;;;;;;14.30;1.00;;;;;;5046404;28;19928;-76
2023/01/01 16:29:08;;;;;;;;;;;14.30;1.00;;;;;;5039334;28;19920;-76
2023/01/01 16:31:35;;;;;;;;;;;14.30;1.00;;;;;;5047354;28;19958;-75
2023/01/01 16:34:04;;;;;;;;;;;14.30;1.00;;;;;;5043346;28;20024;-75
2023/01/01 16:36:30;;;;;;;;;;;14.20;1.00;;;;;;5040781;28;20000;-75
2023/01/01 16:39:07;;;;;;;;;;;14.20;1.00;;;;;;5052170;28;19920;-77
2023/01/01 16:42:01;;;;;;;;;;;14.10;1.00;;;;;;5038704;28;19920;-78
2023/01/01 16:44:56;;;;;;;;;;;14.10;1.00;;;;;;5033675;28;20319;-79
2023/01/01 16:47:27;;;;;;;;;;;14.00;1.00;;;;;;5037409;28;20416;-78
2023/01/01 16:49:56;;;;;;;;;;;13.90;1.00;;;;;;5047161;28;19913;-74
2023/01/01 16:52:24;;;;;;;;;;;13.70;1.00;;;;;;5036939;28;20388;-74
2023/01/01 16:54:52;;;;;;;;;;;13.70;1.00;;;;;;5034027;28;20377;-74
2023/01/01 16:57:19;;;;;;;;;;;13.70;1.00;;;;;;5050674;28;19917;-74
2023/01/01 16:59:45;;;;;;;;;;;13.70;1.00;;;;;;5035613;28;19963;-73
2023/01/01 17:02:13;;;;;;;;;;;13.70;1.00;;;;;;5036805;28;19913;-74
2023/01/01 17:04:39;;;;;;;;;;;13.70;1.00;;;;;;5038058;28;20435;-74
2023/01/01 17:07:05;;;;;;;;;;;13.70;1.00;;;;;;5037899;28;20222;-74
2023/01/01 17:09:30;;;;;;;;;;;13.60;1.00;;;;;;5040286;28;19956;-75
2023/01/01 17:11:56;;;;;;;;;;;13.60;1.00;;;;;;5040637;28;19914;-74
2023/01/01 17:14:22;;;;;;;;;;;13.70;1.00;;;;;;5045044;28;19963;-74